createdAt,value
2023-04-02T00:00:20.357Z,94315.00
2023-04-02T00:01:20.418Z,94317.00
2023-04-02T00:02:20.568Z,94317.00
2023-04-02T00:03:20.610Z,94317.00
2023-04-02T00:04:20.536Z,94319.00
2023-04-02T00:05:20.619Z,94317.00
2023-04-02T00:06:20.607Z,94317.00
2023-04-02T00:07:20.680Z,94319.00
2023-04-02T00:08:20.753Z,94317.00
2023-04-02T00:09:20.767Z,94321.00
2023-04-02T00:10:20.816Z,94317.00
2023-04-02T00:11:20.843Z,94319.00
2023-04-02T00:12:20.912Z,94323.00
2023-04-02T00:13:20.946Z,94321.00
2023-04-02T00:14:20.966Z,94319.00
2023-04-02T00:15:21.038Z,94323.00
2023-04-02T00:16:21.115Z,94321.00
2023-04-02T00:17:21.100Z,94323.00
2023-04-02T00:18:21.239Z,94323.00
2023-04-02T00:19:21.165Z,94323.00
2023-04-02T00:20:21.234Z,94323.00
2023-04-02T00:21:21.288Z,94325.00
2023-04-02T00:22:21.342Z,94325.00
2023-04-02T00:23:21.385Z,94325.00
2023-04-02T00:24:21.427Z,94323.00
2023-04-02T00:25:21.459Z,94325.00
2023-04-02T00:26:21.500Z,94327.00
2023-04-02T00:27:21.556Z,94325.00
2023-04-02T00:28:21.592Z,94327.00
2023-04-02T00:29:21.621Z,94327.00
2023-04-02T00:30:21.690Z,94327.00
2023-04-02T00:31:21.698Z,94327.00
2023-04-02T00:32:21.836Z,94327.00
2023-04-02T00:33:21.789Z,94329.00
2023-04-02T00:34:21.860Z,94329.00
2023-04-02T00:35:21.925Z,94329.00
2023-04-02T00:36:22.050Z,94331.00
2023-04-02T00:37:22.006Z,94329.00
2023-04-02T00:38:22.048Z,94331.00
2023-04-02T00:39:22.108Z,94331.00
2023-04-02T00:40:22.141Z,94329.00
2023-04-02T00:41:22.185Z,94333.00
2023-04-02T00:42:22.220Z,94331.00
2023-04-02T00:43:22.288Z,94329.00
2023-04-02T00:44:22.341Z,94329.00
2023-04-02T00:45:22.386Z,94327.00
2023-04-02T00:46:22.466Z,94325.00
2023-04-02T00:47:22.456Z,94325.00
2023-04-02T00:48:22.517Z,94325.00
2023-04-02T00:49:22.556Z,94325.00
2023-04-02T00:50:22.622Z,94325.00
2023-04-02T00:51:22.669Z,94325.00
2023-04-02T00:52:22.706Z,94325.00
2023-04-02T00:53:22.773Z,94325.00
2023-04-02T00:54:22.835Z,94323.00
2023-04-02T00:55:22.867Z,94325.00
2023-04-02T00:56:22.906Z,94323.00
2023-04-02T00:57:22.977Z,94325.00
2023-04-02T00:58:22.999Z,94323.00
2023-04-02T00:59:23.030Z,94325.00
2023-04-02T01:00:23.098Z,94323.00
2023-04-02T01:01:23.168Z,94323.00
2023-04-02T01:02:23.234Z,94323.00
2023-04-02T01:03:23.463Z,94325.00
2023-04-02T01:04:23.291Z,94327.00
2023-04-02T01:05:23.310Z,94327.00
2023-04-02T01:06:23.377Z,94325.00
2023-04-02T01:07:23.437Z,94329.00
2023-04-02T01:08:23.445Z,94329.00
2023-04-02T01:09:23.497Z,94327.00
2023-04-02T01:10:23.563Z,94329.00
2023-04-02T01:11:23.603Z,94329.00
2023-04-02T01:12:23.654Z,94329.00
2023-04-02T01:13:23.723Z,94335.00
2023-04-02T01:14:23.734Z,94333.00
2023-04-02T01:15:23.778Z,94333.00
2023-04-02T01:16:23.999Z,94333.00
2023-04-02T01:17:23.914Z,94333.00
2023-04-02T01:18:23.948Z,94337.00
2023-04-02T01:19:24.009Z,94337.00
2023-04-02T01:20:24.052Z,94337.00
2023-04-02T01:21:24.104Z,94337.00
2023-04-02T01:22:24.148Z,94337.00
2023-04-02T01:23:24.189Z,94337.00
2023-04-02T01:24:24.250Z,94337.00
2023-04-02T01:25:24.292Z,94337.00
2023-04-02T01:26:24.345Z,94339.00
2023-04-02T01:27:24.362Z,94341.00
2023-04-02T01:28:24.434Z,94339.00
2023-04-02T01:29:24.498Z,94339.00
2023-04-02T01:30:24.549Z,94339.00
2023-04-02T01:31:24.608Z,94339.00
2023-04-02T01:32:24.667Z,94335.00
2023-04-02T01:33:24.700Z,94335.00
2023-04-02T01:34:26.450Z,94333.00
2023-04-02T01:35:24.770Z,94337.00
2023-04-02T01:36:24.857Z,94335.00
2023-04-02T01:37:24.921Z,94339.00
2023-04-02T01:38:24.968Z,94337.00
2023-04-02T01:39:25.004Z,94339.00
2023-04-02T01:40:25.028Z,94341.00
2023-04-02T01:41:25.101Z,94344.00
2023-04-02T01:42:25.186Z,94346.00
2023-04-02T01:43:25.188Z,94346.00
2023-04-02T01:44:25.274Z,94346.00
2023-04-02T01:45:25.449Z,94344.00
2023-04-02T01:46:25.491Z,94344.00
2023-04-02T01:47:25.563Z,94348.00
2023-04-02T01:48:25.455Z,94346.00
2023-04-02T01:49:25.481Z,94346.00
2023-04-02T01:50:25.557Z,94346.00
2023-04-02T01:51:25.635Z,94348.00
2023-04-02T01:52:25.657Z,94348.00
2023-04-02T01:53:25.710Z,94348.00
2023-04-02T01:54:25.780Z,94352.00
2023-04-02T01:55:25.803Z,94354.00
2023-04-02T01:56:25.845Z,94354.00
2023-04-02T01:57:25.955Z,94354.00
2023-04-02T01:58:25.963Z,94354.00
2023-04-02T01:59:25.989Z,94356.00
2023-04-02T02:00:26.041Z,94356.00
2023-04-02T02:01:26.281Z,94356.00
2023-04-02T02:02:26.218Z,94356.00
2023-04-02T02:03:26.189Z,94358.00
2023-04-02T02:04:26.244Z,94360.00
2023-04-02T02:05:26.326Z,94362.00
2023-04-02T02:06:26.357Z,94364.00
2023-04-02T02:07:26.395Z,94364.00
2023-04-02T02:08:26.433Z,94364.00
2023-04-02T02:09:26.491Z,94364.00
2023-04-02T02:10:26.576Z,94366.00
2023-04-02T02:11:26.699Z,94368.00
2023-04-02T02:12:26.681Z,94366.00
2023-04-02T02:13:26.699Z,94368.00
2023-04-02T02:14:26.755Z,94368.00
2023-04-02T02:15:26.834Z,94370.00
2023-04-02T02:16:26.918Z,94370.00
2023-04-02T02:17:26.933Z,94370.00
2023-04-02T02:18:26.985Z,94372.00
2023-04-02T02:19:27.013Z,94370.00
2023-04-02T02:20:27.095Z,94366.00
2023-04-02T02:21:27.131Z,94366.00
2023-04-02T02:22:27.211Z,94370.00
2023-04-02T02:23:27.237Z,94370.00
2023-04-02T02:24:27.294Z,94372.00
2023-04-02T02:25:27.332Z,94370.00
2023-04-02T02:26:27.383Z,94382.00
2023-04-02T02:27:27.452Z,94374.00
2023-04-02T02:28:27.491Z,94374.00
2023-04-02T02:29:27.552Z,94382.00
2023-04-02T02:30:27.625Z,94389.00
2023-04-02T02:31:27.642Z,94386.00
2023-04-02T02:32:27.693Z,94389.00
2023-04-02T02:33:27.730Z,94388.00
2023-04-02T02:34:27.780Z,94388.00
2023-04-02T02:35:27.857Z,94388.00
2023-04-02T02:36:27.912Z,94389.00
2023-04-02T02:37:27.932Z,94397.00
2023-04-02T02:38:27.989Z,94393.00
2023-04-02T02:39:28.076Z,94401.00
2023-04-02T02:40:28.111Z,94399.00
2023-04-02T02:41:28.176Z,94401.00
2023-04-02T02:42:28.242Z,94401.00
2023-04-02T02:43:28.276Z,94405.00
2023-04-02T02:44:28.307Z,94405.00
2023-04-02T02:45:28.368Z,94407.00
2023-04-02T02:46:28.445Z,94411.00
2023-04-02T02:47:28.661Z,94409.00
2023-04-02T02:48:28.538Z,94409.00
2023-04-02T02:49:28.581Z,94411.00
2023-04-02T02:50:28.663Z,94411.00
2023-04-02T02:51:28.684Z,94411.00
2023-04-02T02:52:28.758Z,94411.00
2023-04-02T02:53:28.791Z,94413.00
2023-04-02T02:54:28.847Z,94413.00
2023-04-02T02:55:28.923Z,94411.00
2023-04-02T02:56:28.962Z,94413.00
2023-04-02T02:57:29.127Z,94415.00
2023-04-02T02:58:29.047Z,94417.00
2023-04-02T02:59:29.110Z,94419.00
2023-04-02T03:00:29.144Z,94415.00
2023-04-02T03:01:29.242Z,94417.00
2023-04-02T03:02:29.415Z,94415.00
2023-04-02T03:03:29.470Z,94415.00
2023-04-02T03:04:29.399Z,94417.00
2023-04-02T03:05:29.404Z,94415.00
2023-04-02T03:06:29.455Z,94419.00
2023-04-02T03:07:29.512Z,94419.00
2023-04-02T03:08:29.609Z,94421.00
2023-04-02T03:09:29.648Z,94423.00
2023-04-02T03:10:29.712Z,94421.00
2023-04-02T03:11:29.752Z,94423.00
2023-04-02T03:12:29.828Z,94423.00
2023-04-02T03:13:29.850Z,94423.00
2023-04-02T03:14:29.908Z,94425.00
2023-04-02T03:15:29.984Z,94427.00
2023-04-02T03:16:30.014Z,94431.00
2023-04-02T03:17:30.118Z,94433.00
2023-04-02T03:18:30.131Z,94435.00
2023-04-02T03:19:30.204Z,94435.00
2023-04-02T03:20:30.243Z,94436.00
2023-04-02T03:21:30.311Z,94436.00
2023-04-02T03:22:30.385Z,94438.00
2023-04-02T03:23:30.436Z,94438.00
2023-04-02T03:24:30.492Z,94442.00
2023-04-02T03:25:30.566Z,94440.00
2023-04-02T03:26:30.591Z,94444.00
2023-04-02T03:27:30.671Z,94444.00
2023-04-02T03:28:30.735Z,94448.00
2023-04-02T03:29:30.760Z,94446.00
2023-04-02T03:30:30.828Z,94448.00
2023-04-02T03:31:30.929Z,94448.00
2023-04-02T03:32:30.969Z,94446.00
2023-04-02T03:33:31.006Z,94446.00
2023-04-02T03:34:31.065Z,94446.00
2023-04-02T03:35:31.100Z,94448.00
2023-04-02T03:36:31.165Z,94448.00
2023-04-02T03:37:31.230Z,94448.00
2023-04-02T03:38:31.299Z,94448.00
2023-04-02T03:39:31.376Z,94448.00
2023-04-02T03:40:31.393Z,94450.00
2023-04-02T03:41:31.470Z,94452.00
2023-04-02T03:42:31.520Z,94452.00
2023-04-02T03:43:31.570Z,94452.00
2023-04-02T03:44:31.659Z,94452.00
2023-04-02T03:45:31.656Z,94452.00
2023-04-02T03:46:31.840Z,94456.00
2023-04-02T03:47:31.806Z,94456.00
2023-04-02T03:48:31.814Z,94456.00
2023-04-02T03:49:31.891Z,94456.00
2023-04-02T03:50:31.926Z,94456.00
2023-04-02T03:51:31.999Z,94454.00
2023-04-02T03:52:32.050Z,94456.00
2023-04-02T03:53:32.139Z,94458.00
2023-04-02T03:54:32.157Z,94458.00
2023-04-02T03:55:32.217Z,94458.00
2023-04-02T03:56:32.293Z,94458.00
2023-04-02T03:57:32.545Z,94458.00
2023-04-02T03:58:32.400Z,94462.00
2023-04-02T03:59:32.441Z,94460.00
2023-04-02T04:00:32.501Z,94462.00
2023-04-02T04:01:32.548Z,94462.00
2023-04-02T04:02:32.610Z,94464.00
2023-04-02T04:03:32.665Z,94460.00
2023-04-02T04:04:32.768Z,94466.00
2023-04-02T04:05:33.105Z,94466.00
2023-04-02T04:06:32.823Z,94466.00
2023-04-02T04:07:32.942Z,94466.00
2023-04-02T04:08:32.972Z,94468.00
2023-04-02T04:09:33.018Z,94466.00
2023-04-02T04:10:33.087Z,94472.00
2023-04-02T04:11:33.102Z,94474.00
2023-04-02T04:12:33.234Z,94478.00
2023-04-02T04:13:33.210Z,94474.00
2023-04-02T04:14:33.279Z,94474.00
2023-04-02T04:15:33.650Z,94478.00
2023-04-02T04:16:33.448Z,94476.00
2023-04-02T04:17:33.477Z,94476.00
2023-04-02T04:18:33.506Z,94478.00
2023-04-02T04:19:33.547Z,94480.00
2023-04-02T04:20:33.625Z,94482.00
2023-04-02T04:21:33.676Z,94484.00
2023-04-02T04:22:33.840Z,94484.00
2023-04-02T04:23:33.796Z,94486.00
2023-04-02T04:24:33.842Z,94489.00
2023-04-02T04:25:34.280Z,94489.00
2023-04-02T04:26:33.970Z,94493.00
2023-04-02T04:27:34.012Z,94495.00
2023-04-02T04:28:34.083Z,94497.00
2023-04-02T04:29:34.102Z,94497.00
2023-04-02T04:30:34.151Z,94499.00
2023-04-02T04:31:34.250Z,94503.00
2023-04-02T04:32:34.335Z,94503.00
2023-04-02T04:33:34.322Z,94505.00
2023-04-02T04:34:34.404Z,94507.00
2023-04-02T04:35:34.832Z,94507.00
2023-04-02T04:36:34.591Z,94507.00
2023-04-02T04:37:34.564Z,94511.00
2023-04-02T04:38:34.600Z,94511.00
2023-04-02T04:39:34.684Z,94511.00
2023-04-02T04:40:34.730Z,94513.00
2023-04-02T04:41:34.754Z,94513.00
2023-04-02T04:42:34.820Z,94515.00
2023-04-02T04:43:34.867Z,94515.00
2023-04-02T04:44:34.924Z,94519.00
2023-04-02T04:45:35.066Z,94523.00
2023-04-02T04:46:35.027Z,94523.00
2023-04-02T04:47:35.118Z,94523.00
2023-04-02T04:48:36.325Z,94523.00
2023-04-02T04:49:35.193Z,94523.00
2023-04-02T04:50:35.253Z,94523.00
2023-04-02T04:51:35.291Z,94527.00
2023-04-02T04:52:35.369Z,94527.00
2023-04-02T04:53:35.419Z,94525.00
2023-04-02T04:54:35.494Z,94527.00
2023-04-02T04:55:35.815Z,94527.00
2023-04-02T04:56:35.584Z,94529.00
2023-04-02T04:57:35.653Z,94529.00
2023-04-02T04:58:35.713Z,94529.00
2023-04-02T04:59:35.741Z,94531.00
2023-04-02T05:00:35.854Z,94531.00
2023-04-02T05:01:35.922Z,94533.00
2023-04-02T05:02:35.961Z,94535.00
2023-04-02T05:03:36.005Z,94537.00
2023-04-02T05:04:36.115Z,94538.00
2023-04-02T05:05:36.364Z,94538.00
2023-04-02T05:06:36.188Z,94535.00
2023-04-02T05:07:36.231Z,94540.00
2023-04-02T05:08:36.278Z,94540.00
2023-04-02T05:09:36.350Z,94542.00
2023-04-02T05:10:36.410Z,94540.00
2023-04-02T05:11:36.460Z,94540.00
2023-04-02T05:12:36.505Z,94540.00
2023-04-02T05:13:36.585Z,94538.00
2023-04-02T05:14:36.606Z,94542.00
2023-04-02T05:15:36.899Z,94538.00
2023-04-02T05:16:36.811Z,94538.00
2023-04-02T05:17:36.808Z,94542.00
2023-04-02T05:18:36.869Z,94542.00
2023-04-02T05:19:36.895Z,94542.00
2023-04-02T05:20:36.990Z,94544.00
2023-04-02T05:21:37.013Z,94542.00
2023-04-02T05:22:37.982Z,94542.00
2023-04-02T05:23:37.118Z,94542.00
2023-04-02T05:24:37.187Z,94542.00
2023-04-02T05:25:37.370Z,94546.00
2023-04-02T05:26:37.293Z,94546.00
2023-04-02T05:27:37.349Z,94550.00
2023-04-02T05:28:37.411Z,94550.00
2023-04-02T05:29:37.455Z,94548.00
2023-04-02T05:30:37.522Z,94550.00
2023-04-02T05:31:37.630Z,94552.00
2023-04-02T05:32:37.703Z,94548.00
2023-04-02T05:33:37.683Z,94552.00
2023-04-02T05:34:37.744Z,94552.00
2023-04-02T05:35:38.083Z,94554.00
2023-04-02T05:36:37.847Z,94558.00
2023-04-02T05:37:37.940Z,94558.00
2023-04-02T05:38:38.010Z,94562.00
2023-04-02T05:39:38.059Z,94564.00
2023-04-02T05:40:38.102Z,94564.00
2023-04-02T05:41:38.152Z,94568.00
2023-04-02T05:42:38.219Z,94568.00
2023-04-02T05:43:38.270Z,94568.00
2023-04-02T05:44:39.284Z,94570.00
2023-04-02T05:45:38.401Z,94570.00
2023-04-02T05:46:38.478Z,94570.00
2023-04-02T05:47:38.524Z,94572.00
2023-04-02T05:48:38.537Z,94572.00
2023-04-02T05:49:38.605Z,94574.00
2023-04-02T05:50:38.638Z,94576.00
2023-04-02T05:51:38.707Z,94578.00
2023-04-02T05:52:38.776Z,94578.00
2023-04-02T05:53:38.847Z,94580.00
2023-04-02T05:54:38.868Z,94580.00
2023-04-02T05:55:38.959Z,94580.00
2023-04-02T05:56:38.971Z,94584.00
2023-04-02T05:57:46.809Z,94585.00
2023-04-02T05:58:40.320Z,94585.00
2023-04-02T05:59:39.018Z,94587.00
2023-04-02T06:00:39.004Z,94589.00
2023-04-02T06:01:39.049Z,94587.00
2023-04-02T06:02:39.044Z,94587.00
2023-04-02T06:03:39.143Z,94587.00
2023-04-02T06:04:38.990Z,94587.00
2023-04-02T06:05:38.988Z,94589.00
2023-04-02T06:06:38.980Z,94585.00
2023-04-02T06:07:38.967Z,94587.00
2023-04-02T06:08:39.004Z,94589.00
2023-04-02T06:09:39.067Z,94585.00
2023-04-02T06:10:39.119Z,94585.00
2023-04-02T06:11:39.163Z,94585.00
2023-04-02T06:12:39.233Z,94585.00
2023-04-02T06:13:39.274Z,94585.00
2023-04-02T06:14:39.338Z,94587.00
2023-04-02T06:15:39.421Z,94587.00
2023-04-02T06:16:39.528Z,94589.00
2023-04-02T06:17:39.527Z,94589.00
2023-04-02T06:18:39.569Z,94593.00
2023-04-02T06:19:39.630Z,94595.00
2023-04-02T06:20:39.662Z,94593.00
2023-04-02T06:21:39.746Z,94593.00
2023-04-02T06:22:39.773Z,94595.00
2023-04-02T06:23:39.874Z,94593.00
2023-04-02T06:24:39.915Z,94593.00
2023-04-02T06:25:39.953Z,94593.00
2023-04-02T06:26:39.991Z,94597.00
2023-04-02T06:27:40.085Z,94595.00
2023-04-02T06:28:40.097Z,94597.00
2023-04-02T06:29:40.331Z,94597.00
2023-04-02T06:30:40.228Z,94605.00
2023-04-02T06:31:40.268Z,94601.00
2023-04-02T06:32:40.354Z,94607.00
2023-04-02T06:33:40.389Z,94607.00
2023-04-02T06:34:40.431Z,94609.00
2023-04-02T06:35:40.555Z,94611.00
2023-04-02T06:36:40.550Z,94611.00
2023-04-02T06:37:40.577Z,94611.00
2023-04-02T06:38:40.659Z,94609.00
2023-04-02T06:39:40.672Z,94611.00
2023-04-02T06:40:40.709Z,94611.00
2023-04-02T06:41:40.792Z,94613.00
2023-04-02T06:42:41.191Z,94613.00
2023-04-02T06:43:41.222Z,94613.00
2023-04-02T06:44:40.863Z,94613.00
2023-04-02T06:45:40.923Z,94615.00
2023-04-02T06:46:40.897Z,94615.00
2023-04-02T06:47:40.954Z,94617.00
2023-04-02T06:48:40.943Z,94617.00
2023-04-02T06:49:40.998Z,94619.00
2023-04-02T06:50:41.016Z,94615.00
2023-04-02T06:51:41.029Z,94619.00
2023-04-02T06:52:41.092Z,94619.00
2023-04-02T06:53:41.127Z,94617.00
2023-04-02T06:54:41.164Z,94617.00
2023-04-02T06:55:41.176Z,94621.00
2023-04-02T06:56:41.208Z,94617.00
2023-04-02T06:57:42.920Z,94617.00
2023-04-02T06:58:41.280Z,94617.00
2023-04-02T06:59:41.313Z,94619.00
2023-04-02T07:00:41.313Z,94619.00
2023-04-02T07:01:41.384Z,94617.00
2023-04-02T07:02:41.423Z,94617.00
2023-04-02T07:03:41.403Z,94617.00
2023-04-02T07:04:41.456Z,94619.00
2023-04-02T07:05:43.042Z,94617.00
2023-04-02T07:06:41.448Z,94617.00
2023-04-02T07:07:41.508Z,94625.00
2023-04-02T07:08:41.522Z,94621.00
2023-04-02T07:09:41.528Z,94621.00
2023-04-02T07:10:41.528Z,94621.00
2023-04-02T07:11:41.529Z,94619.00
2023-04-02T07:12:41.568Z,94619.00
2023-04-02T07:13:41.596Z,94617.00
2023-04-02T07:14:41.584Z,94613.00
2023-04-02T07:15:41.627Z,94613.00
2023-04-02T07:16:41.590Z,94617.00
2023-04-02T07:17:41.634Z,94619.00
2023-04-02T07:18:41.617Z,94619.00
2023-04-02T07:19:41.605Z,94621.00
2023-04-02T07:20:41.619Z,94619.00
2023-04-02T07:21:41.605Z,94617.00
2023-04-02T07:22:41.573Z,94619.00
2023-04-02T07:23:41.584Z,94615.00
2023-04-02T07:24:41.600Z,94613.00
2023-04-02T07:25:41.569Z,94613.00
2023-04-02T07:26:41.544Z,94611.00
2023-04-02T07:27:41.549Z,94613.00
2023-04-02T07:28:41.598Z,94615.00
2023-04-02T07:29:41.606Z,94615.00
2023-04-02T07:30:41.614Z,94613.00
2023-04-02T07:31:41.638Z,94613.00
2023-04-02T07:32:41.632Z,94613.00
2023-04-02T07:33:42.128Z,94615.00
2023-04-02T07:34:41.777Z,94615.00
2023-04-02T07:35:41.788Z,94615.00
2023-04-02T07:36:41.879Z,94607.00
2023-04-02T07:37:41.887Z,94615.00
2023-04-02T07:38:41.985Z,94615.00
2023-04-02T07:39:42.038Z,94615.00
2023-04-02T07:40:42.097Z,94613.00
2023-04-02T07:41:42.175Z,94613.00
2023-04-02T07:42:42.214Z,94617.00
2023-04-02T07:43:42.270Z,94619.00
2023-04-02T07:44:42.318Z,94623.00
2023-04-02T07:45:42.400Z,94625.00
2023-04-02T07:46:42.489Z,94623.00
2023-04-02T07:47:42.585Z,94625.00
2023-04-02T07:48:42.546Z,94625.00
2023-04-02T07:49:42.628Z,94623.00
2023-04-02T07:50:42.664Z,94627.00
2023-04-02T07:51:42.741Z,94631.00
2023-04-02T07:52:42.805Z,94631.00
2023-04-02T07:53:42.815Z,94629.00
2023-04-02T07:54:42.876Z,94629.00
2023-04-02T07:55:42.932Z,94631.00
2023-04-02T07:56:43.004Z,94629.00
2023-04-02T07:57:45.641Z,94627.00
2023-04-02T07:58:43.028Z,94627.00
2023-04-02T07:59:43.040Z,94627.00
2023-04-02T08:00:43.024Z,94631.00
2023-04-02T08:01:43.218Z,94629.00
2023-04-02T08:02:43.094Z,94629.00
2023-04-02T08:03:43.055Z,94631.00
2023-04-02T08:04:42.998Z,94629.00
2023-04-02T08:05:43.002Z,94631.00
2023-04-02T08:06:42.975Z,94629.00
2023-04-02T08:07:42.955Z,94627.00
2023-04-02T08:08:42.965Z,94631.00
2023-04-02T08:09:42.924Z,94638.00
2023-04-02T08:10:42.947Z,94638.00
2023-04-02T08:11:42.944Z,94638.00
2023-04-02T08:12:42.928Z,94638.00
2023-04-02T08:13:42.919Z,94638.00
2023-04-02T08:14:42.957Z,94638.00
2023-04-02T08:15:42.914Z,94640.00
2023-04-02T08:16:42.948Z,94638.00
2023-04-02T08:17:42.991Z,94640.00
2023-04-02T08:18:42.928Z,94638.00
2023-04-02T08:19:54.206Z,94640.00
2023-04-02T08:20:43.861Z,94640.00
2023-04-02T08:21:42.872Z,94638.00
2023-04-02T08:22:42.846Z,94642.00
2023-04-02T08:23:42.879Z,94638.00
2023-04-02T08:24:42.866Z,94640.00
2023-04-02T08:25:42.872Z,94642.00
2023-04-02T08:26:43.977Z,94642.00
2023-04-02T08:27:43.012Z,94640.00
2023-04-02T08:28:43.007Z,94642.00
2023-04-02T08:29:43.076Z,94642.00
2023-04-02T08:30:43.102Z,94640.00
2023-04-02T08:31:43.145Z,94644.00
2023-04-02T08:32:43.213Z,94644.00
2023-04-02T08:33:43.190Z,94644.00
2023-04-02T08:34:43.251Z,94644.00
2023-04-02T08:35:43.287Z,94640.00
2023-04-02T08:36:43.329Z,94638.00
2023-04-02T08:37:43.329Z,94642.00
2023-04-02T08:38:43.444Z,94638.00
2023-04-02T08:39:43.416Z,94631.00
2023-04-02T08:40:43.498Z,94631.00
2023-04-02T08:41:43.503Z,94631.00
2023-04-02T08:42:43.505Z,94629.00
2023-04-02T08:43:43.549Z,94627.00
2023-04-02T08:44:43.551Z,94629.00
2023-04-02T08:45:43.634Z,94625.00
2023-04-02T08:46:43.632Z,94623.00
2023-04-02T08:47:43.717Z,94627.00
2023-04-02T08:48:43.804Z,94623.00
2023-04-02T08:49:43.723Z,94625.00
2023-04-02T08:50:43.772Z,94623.00
2023-04-02T08:51:43.754Z,94619.00
2023-04-02T08:52:43.798Z,94617.00
2023-04-02T08:53:43.857Z,94621.00
2023-04-02T08:54:43.885Z,94623.00
2023-04-02T08:55:43.954Z,94617.00
2023-04-02T08:56:43.911Z,94619.00
2023-04-02T08:57:43.960Z,94621.00
2023-04-02T08:58:43.979Z,94617.00
2023-04-02T08:59:44.015Z,94617.00
2023-04-02T09:00:44.071Z,94617.00
2023-04-02T09:01:44.155Z,94615.00
2023-04-02T09:02:44.105Z,94613.00
2023-04-02T09:03:44.125Z,94617.00
2023-04-02T09:04:44.172Z,94615.00
2023-04-02T09:05:44.185Z,94613.00
2023-04-02T09:06:44.221Z,94613.00
2023-04-02T09:07:44.217Z,94615.00
2023-04-02T09:08:44.294Z,94613.00
2023-04-02T09:09:44.299Z,94609.00
2023-04-02T09:10:44.319Z,94609.00
2023-04-02T09:11:44.329Z,94609.00
2023-04-02T09:12:44.359Z,94611.00
2023-04-02T09:13:44.428Z,94611.00
2023-04-02T09:14:44.453Z,94609.00
2023-04-02T09:15:44.457Z,94611.00
2023-04-02T09:16:44.497Z,94609.00
2023-04-02T09:17:53.485Z,94611.00
2023-04-02T09:18:45.576Z,94609.00
2023-04-02T09:19:44.540Z,94609.00
2023-04-02T09:20:44.495Z,94609.00
2023-04-02T09:21:44.482Z,94607.00
2023-04-02T09:22:44.483Z,94607.00
2023-04-02T09:23:44.498Z,94609.00
2023-04-02T09:24:44.458Z,94609.00
2023-04-02T09:25:48.472Z,94609.00
2023-04-02T09:26:45.479Z,94609.00
2023-04-02T09:27:44.424Z,94609.00
2023-04-02T09:28:44.452Z,94611.00
2023-04-02T09:29:44.441Z,94611.00
2023-04-02T09:30:44.437Z,94611.00
2023-04-02T09:31:44.480Z,94613.00
2023-04-02T09:32:44.481Z,94613.00
2023-04-02T09:33:44.419Z,94613.00
2023-04-02T09:34:44.427Z,94611.00
2023-04-02T09:35:44.522Z,94609.00
2023-04-02T09:36:44.390Z,94609.00
2023-04-02T09:37:44.377Z,94609.00
2023-04-02T09:38:44.398Z,94607.00
2023-04-02T09:39:44.355Z,94607.00
2023-04-02T09:40:44.365Z,94605.00
2023-04-02T09:41:48.179Z,94607.00
2023-04-02T09:42:45.318Z,94603.00
2023-04-02T09:43:44.330Z,94607.00
2023-04-02T09:44:44.303Z,94609.00
2023-04-02T09:45:44.343Z,94609.00
2023-04-02T09:46:44.346Z,94607.00
2023-04-02T09:47:44.353Z,94607.00
2023-04-02T09:48:44.303Z,94607.00
2023-04-02T09:49:44.287Z,94609.00
2023-04-02T09:50:44.291Z,94609.00
2023-04-02T09:51:44.280Z,94611.00
2023-04-02T09:52:44.261Z,94611.00
2023-04-02T09:53:44.256Z,94615.00
2023-04-02T09:54:44.260Z,94613.00
2023-04-02T09:55:44.269Z,94615.00
2023-04-02T09:56:44.248Z,94617.00
2023-04-02T09:57:44.243Z,94613.00
2023-04-02T09:58:44.259Z,94613.00
2023-04-02T09:59:44.309Z,94613.00
2023-04-02T10:00:44.508Z,94615.00
2023-04-02T10:01:44.497Z,94615.00
2023-04-02T10:02:44.389Z,94615.00
2023-04-02T10:03:44.409Z,94619.00
2023-04-02T10:04:44.624Z,94615.00
2023-04-02T10:05:44.593Z,94617.00
2023-04-02T10:06:44.490Z,94615.00
2023-04-02T10:07:44.524Z,94617.00
2023-04-02T10:08:44.614Z,94615.00
2023-04-02T10:09:44.562Z,94613.00
2023-04-02T10:10:44.834Z,94617.00
2023-04-02T10:11:46.572Z,94615.00
2023-04-02T10:12:44.689Z,94613.00
2023-04-02T10:13:44.728Z,94611.00
2023-04-02T10:14:44.753Z,94613.00
2023-04-02T10:15:44.774Z,94611.00
2023-04-02T10:16:44.871Z,94611.00
2023-04-02T10:17:44.875Z,94611.00
2023-04-02T10:18:44.889Z,94613.00
2023-04-02T10:19:44.892Z,94613.00
2023-04-02T10:20:51.271Z,94609.00
2023-04-02T10:21:45.934Z,94609.00
2023-04-02T10:22:44.929Z,94609.00
2023-04-02T10:23:44.920Z,94609.00
2023-04-02T10:24:44.903Z,94611.00
2023-04-02T10:25:44.908Z,94609.00
2023-04-02T10:26:44.917Z,94609.00
2023-04-02T10:27:44.872Z,94609.00
2023-04-02T10:28:44.903Z,94607.00
2023-04-02T10:29:44.924Z,94609.00
2023-04-02T10:30:44.938Z,94605.00
2023-04-02T10:31:44.856Z,94607.00
2023-04-02T10:32:44.896Z,94607.00
2023-04-02T10:33:44.864Z,94609.00
2023-04-02T10:34:44.888Z,94611.00
2023-04-02T10:35:44.894Z,94611.00
2023-04-02T10:36:44.922Z,94617.00
2023-04-02T10:37:44.963Z,94613.00
2023-04-02T10:38:45.001Z,94611.00
2023-04-02T10:39:45.048Z,94613.00
2023-04-02T10:40:45.039Z,94611.00
2023-04-02T10:41:45.091Z,94611.00
2023-04-02T10:42:45.116Z,94613.00
2023-04-02T10:43:45.164Z,94615.00
2023-04-02T10:44:45.204Z,94615.00
2023-04-02T10:45:45.294Z,94615.00
2023-04-02T10:46:45.358Z,94619.00
2023-04-02T10:47:45.314Z,94615.00
2023-04-02T10:48:45.345Z,94617.00
2023-04-02T10:49:45.382Z,94617.00
2023-04-02T10:50:45.387Z,94619.00
2023-04-02T10:51:45.439Z,94619.00
2023-04-02T10:52:45.478Z,94615.00
2023-04-02T10:53:45.520Z,94617.00
2023-04-02T10:54:45.544Z,94621.00
2023-04-02T10:55:45.594Z,94621.00
2023-04-02T10:56:51.120Z,94621.00
2023-04-02T10:57:46.648Z,94625.00
2023-04-02T10:58:45.615Z,94623.00
2023-04-02T10:59:45.636Z,94625.00
2023-04-02T11:00:45.621Z,94627.00
2023-04-02T11:01:45.634Z,94623.00
2023-04-02T11:02:45.648Z,94625.00
2023-04-02T11:03:45.702Z,94623.00
2023-04-02T11:04:45.561Z,94627.00
2023-04-02T11:05:45.567Z,94627.00
2023-04-02T11:06:45.537Z,94623.00
2023-04-02T11:07:45.561Z,94625.00
2023-04-02T11:08:45.588Z,94627.00
2023-04-02T11:09:45.609Z,94625.00
2023-04-02T11:10:45.630Z,94627.00
2023-04-02T11:11:45.686Z,94627.00
2023-04-02T11:12:45.729Z,94627.00
2023-04-02T11:13:45.797Z,94627.00
2023-04-02T11:14:45.819Z,94631.00
2023-04-02T11:15:45.853Z,94638.00
2023-04-02T11:16:45.992Z,94640.00
2023-04-02T11:17:46.032Z,94640.00
2023-04-02T11:18:46.018Z,94640.00
2023-04-02T11:19:46.089Z,94640.00
2023-04-02T11:20:46.115Z,94642.00
2023-04-02T11:21:58.128Z,94644.00
2023-04-02T11:22:47.144Z,94642.00
2023-04-02T11:23:46.145Z,94646.00
2023-04-02T11:24:46.142Z,94646.00
2023-04-02T11:25:46.140Z,94646.00
2023-04-02T11:26:46.117Z,94646.00
2023-04-02T11:27:46.110Z,94644.00
2023-04-02T11:28:46.094Z,94650.00
2023-04-02T11:29:46.123Z,94650.00
2023-04-02T11:30:46.094Z,94650.00
2023-04-02T11:31:46.171Z,94652.00
2023-04-02T11:32:46.179Z,94650.00
2023-04-02T11:33:48.146Z,94654.00
2023-04-02T11:34:48.097Z,94656.00
2023-04-02T11:35:47.270Z,94656.00
2023-04-02T11:36:46.210Z,94658.00
2023-04-02T11:37:46.192Z,94656.00
2023-04-02T11:38:46.199Z,94656.00
2023-04-02T11:39:46.209Z,94658.00
2023-04-02T11:40:46.186Z,94664.00
2023-04-02T11:41:46.158Z,94658.00
2023-04-02T11:42:46.163Z,94658.00
2023-04-02T11:43:46.205Z,94660.00
2023-04-02T11:44:46.209Z,94660.00